European Causeway — C6RG7 — position and weather

sailwx.info

Track history (hours):
 
Tides and Currents Weather Stations Pressure Air Temp Water Temp Dewpoint Dewpoint Depression Visibility Wind Speed Wind Dir Waves Ship Positions

European Causeway

Operator: P & O Irish Sea

Last reported at 2014-Sep-18 04:34 UTC. Time now 2014-Sep-18 05:38 UTC.
Position N 54°54' W 005°40'.

Length 165 m; draft 5.5 m.

Type: Ship (hazmat cat A). MMSI: 311027000.

Date/timePositionNaut miles runAvg speedWind from/ knotsBaromVisibWave heightAir tempDewpointWater temp
2014-Sep-18 04:34N 54°54' W 005°40'1817.6
2014-Sep-18 03:32N 55°01' W 005°11'7 7.0
2014-Sep-18 02:33N 54°58' W 005°01'0 0.0
2014-Sep-18 01:33N 54°58' W 005°01'7 6.3
2014-Sep-18 00:31N 55°02' W 005°10'1717.2
2014-Sep-17 23:33N 54°54' W 005°35'8 8.1
2014-Sep-17 22:33N 54°51' W 005°48'0 0.0
2014-Sep-17 21:33N 54°51' W 005°48'2 1.8
2014-Sep-17 20:33N 54°52' W 005°46'1919.0
2014-Sep-17 19:33N 55°01' W 005°17'10 9.3
2014-Sep-17 18:31N 54°58' W 005°01'0 0.0
2014-Sep-17 17:34N 54°58' W 005°01'1212.2
2014-Sep-17 16:33N 54°57' W 005°22'1616.0
2014-Sep-17 15:33N 54°51' W 005°48'0 0.0
2014-Sep-17 14:33N 54°51' W 005°48'1717.0
2014-Sep-17 13:33N 54°59' W 005°22'1211.2
2014-Sep-17 12:29N 54°58' W 005°01'0 0.0
2014-Sep-17 11:34N 54°58' W 005°01'1212.1
2014-Sep-17 10:34N 54°58' W 005°22'1616.2
2014-Sep-17 09:34N 54°51' W 005°48'0 0.1
2014-Sep-17 08:33N 54°51' W 005°48'1312.8
2014-Sep-17 07:33N 54°57' W 005°28'1514.9
2014-Sep-17 06:32N 54°58' W 005°02'1 0.9
2014-Sep-17 05:34N 54°58' W 005°01'6 5.7
2014-Sep-17 04:33N 55°01' W 005°08'1717.1
2014-Sep-17 03:33N 54°54' W 005°35'8 8.0
2014-Sep-17 02:33N 54°51' W 005°48'0 0.0
2014-Sep-17 01:34N 54°51' W 005°48'3 3.1
2014-Sep-17 00:33N 54°53' W 005°44'1817.9
2014-Sep-16 23:33N 55°00' W 005°16'9 8.7
2014-Sep-16 22:33N 54°58' W 005°01'0 0.0
2014-Sep-16 21:33N 54°58' W 005°01'6 5.2
2014-Sep-16 20:27N 55°02' W 005°09'1820.1
2014-Sep-16 19:33N 54°54' W 005°37'7 6.9
2014-Sep-16 18:32N 54°51' W 005°48'0 0.0
2014-Sep-16 17:34N 54°51' W 005°48'1414.0
2014-Sep-16 16:33N 54°58' W 005°26'1514.5
2014-Sep-16 15:33N 54°58' W 005°01'0 0.0
2014-Sep-16 14:33N 54°58' W 005°01'1211.9
2014-Sep-16 13:34N 54°58' W 005°22'1616.5
2014-Sep-16 12:34N 54°51' W 005°48'0 0.0
2014-Sep-16 11:33N 54°51' W 005°48'1413.8
2014-Sep-16 10:34N 54°57' W 005°27'1514.5
2014-Sep-16 09:33N 54°58' W 005°02'0 0.5
2014-Sep-16 08:32N 54°58' W 005°01'1312.8
2014-Sep-16 07:33N 54°57' W 005°23'1615.7
2014-Sep-16 06:33N 54°51' W 005°48'0 0.0
2014-Sep-16 05:33N 54°51' W 005°48'3 3.2
2014-Sep-16 04:33N 54°53' W 005°43'2020.2
2014-Sep-16 03:33N 55°01' W 005°11'7 7.0
2014-Sep-16 02:33N 54°58' W 005°01'0 0.0
2014-Sep-16 01:33N 54°58' W 005°01'5 5.5
2014-Sep-16 00:33N 55°02' W 005°08'1717.4
2014-Sep-15 23:34N 54°54' W 005°35'8 7.9
2014-Sep-15 22:33N 54°51' W 005°48'0 0.0
2014-Sep-15 21:21N 54°51' W 005°48'4 5.0
2014-Sep-15 20:34N 54°53' W 005°42'1817.7
2014-Sep-15 19:33N 55°01' W 005°14'8 7.8
2014-Sep-15 18:30N 54°58' W 005°01'0 0.0
2014-Sep-15 17:33N 54°58' W 005°01'1313.0
2014-Sep-15 16:33N 54°57' W 005°24'1515.3
2014-Sep-15 15:33N 54°51' W 005°48'0 0.0
2014-Sep-15 14:33N 54°51' W 005°48'1414.2
2014-Sep-15 13:33N 54°58' W 005°26'1414.4
2014-Sep-15 12:33N 54°58' W 005°01'0 0.1
2014-Sep-15 11:33N 54°58' W 005°01'1211.7
2014-Sep-15 10:33N 54°58' W 005°21'1716.6
2014-Sep-15 09:33N 54°51' W 005°48'0 0.1
2014-Sep-15 08:33N 54°51' W 005°48'1211.6
2014-Sep-15 07:33N 54°57' W 005°30'1615.5
2014-Sep-15 06:31N 54°59' W 005°03'2 1.7
2014-Sep-15 05:33N 54°58' W 005°01'6 5.6
2014-Sep-15 04:33N 55°02' W 005°08'1817.3
2014-Sep-15 03:31N 54°54' W 005°37'7 7.4
2014-Sep-15 02:33N 54°51' W 005°48'0 0.0
2014-Sep-15 01:33N 54°51' W 005°48'0 0.0
2014-Sep-15 00:33N 54°51' W 005°48'4 3.7
2014-Sep-14 23:33N 54°53' W 005°43'1818.1
2014-Sep-14 22:33N 55°01' W 005°14'8 7.9
2014-Sep-14 21:33N 54°58' W 005°01'6 6.1
2014-Sep-14 20:31N 55°01' W 005°10'1717.4
2014-Sep-14 19:33N 54°54' W 005°36'7 7.4
2014-Sep-14 18:33N 54°51' W 005°48'0 0.0
2014-Sep-14 17:33N 54°51' W 005°48'1313.2
2014-Sep-14 16:33N 54°57' W 005°28'1514.8
2014-Sep-14 15:33N 54°58' W 005°02'1 0.9
2014-Sep-14 14:33N 54°58' W 005°01'6 6.4
2014-Sep-14 13:34N 55°01' W 005°10'1717.2
2014-Sep-14 12:33N 54°54' W 005°38'7 6.6
2014-Sep-14 11:34N 54°51' W 005°48'0 0.0
2014-Sep-14 10:34N 54°51' W 005°48'0 0.0
2014-Sep-14 09:33N 54°51' W 005°48'0 0.0
2014-Sep-14 08:34N 54°51' W 005°48'1212.0
2014-Sep-14 07:34N 54°57' W 005°30'1615.5
2014-Sep-14 06:33N 54°59' W 005°03'2 1.6
2014-Sep-14 05:33N 54°58' W 005°01'0 0.0
2014-Sep-14 04:33N 54°58' W 005°01'0 0.0
2014-Sep-14 03:33N 54°58' W 005°01'0 0.0
2014-Sep-14 02:33N 54°58' W 005°01'0 0.0
2014-Sep-14 01:33N 54°58' W 005°01'0 0.0
2014-Sep-13 21:33N 54°58' W 005°01'5 4.7
2014-Sep-13 20:29N 55°02' W 005°07'1717.8
2014-Sep-13 19:34N 54°55' W 005°33'9 9.4
2014-Sep-13 18:33N 54°51' W 005°48'0 0.0
2014-Sep-13 17:33N 54°51' W 005°48'1313.4
2014-Sep-13 16:33N 54°57' W 005°27'1514.8
2014-Sep-13 15:33N 54°58' W 005°02'1 0.7
2014-Sep-13 14:34N 54°58' W 005°01'1010.0
2014-Sep-13 13:33N 54°58' W 005°18'1817.9
2014-Sep-13 12:33N 54°52' W 005°47'1 1.2
2014-Sep-13 11:33N 54°51' W 005°48'1413.9
2014-Sep-13 10:34N 54°57' W 005°27'1514.5
2014-Sep-13 09:34N 54°58' W 005°02'0 0.4
2014-Sep-13 08:34N 54°58' W 005°01'1111.2
2014-Sep-13 07:34N 54°57' W 005°21'1716.9
2014-Sep-13 06:34N 54°51' W 005°48'0 0.1
2014-Sep-13 05:34N 54°51' W 005°48'3 3.4
2014-Sep-13 04:34N 54°53' W 005°43'2020.1
2014-Sep-13 03:33N 55°01' W 005°12'7 7.1
2014-Sep-13 02:33N 54°58' W 005°01'0 0.0
2014-Sep-13 01:33N 54°58' W 005°01'5 4.7
2014-Sep-13 00:32N 55°02' W 005°06'1617.0
2014-Sep-12 23:33N 54°55' W 005°32'10 9.9
2014-Sep-12 22:33N 54°51' W 005°48'0 0.0
2014-Sep-12 21:33N 54°51' W 005°48'5 5.1
2014-Sep-12 20:33N 54°54' W 005°40'1817.8
2014-Sep-12 19:34N 55°01' W 005°12'7 7.1
2014-Sep-12 18:31N 54°58' W 005°01'0 0.1
2014-Sep-12 17:33N 54°58' W 005°01'1312.7
2014-Sep-12 16:34N 54°57' W 005°23'1615.5
2014-Sep-12 15:33N 54°51' W 005°48'0 0.0
2014-Sep-12 14:33N 54°51' W 005°48'1716.7
2014-Sep-12 13:33N 54°59' W 005°22'1212.1
2014-Sep-12 12:33N 54°58' W 005°01'0 0.0
2014-Sep-12 11:33N 54°58' W 005°01'1211.8
2014-Sep-12 10:33N 54°58' W 005°21'1716.6
2014-Sep-12 09:33N 54°51' W 005°48'0 0.1
2014-Sep-12 08:33N 54°51' W 005°48'1515.5
2014-Sep-12 07:33N 54°58' W 005°24'1312.7
2014-Sep-12 06:31N 54°58' W 005°01'0 0.0
2014-Sep-12 05:33N 54°58' W 005°01'6 5.7
2014-Sep-12 04:34N 55°01' W 005°08'1817.7
2014-Sep-12 03:34N 54°54' W 005°37'7 7.2
2014-Sep-12 02:33N 54°51' W 005°48'0 0.0
2014-Sep-12 01:33N 54°51' W 005°48'3 2.6
2014-Sep-12 00:34N 54°53' W 005°44'1818.3
2014-Sep-11 23:34N 55°00' W 005°16'9 8.4
2014-Sep-11 22:31N 54°58' W 005°01'0 0.0
2014-Sep-11 21:28N 54°58' W 005°01'6 6.0
2014-Sep-11 20:30N 55°01' W 005°08'1919.9
2014-Sep-11 19:33N 54°54' W 005°39'6 6.0
2014-Sep-11 18:33N 54°51' W 005°48'0 0.0
2014-Sep-11 17:33N 54°51' W 005°48'1616.0
2014-Sep-11 16:33N 54°59' W 005°23'1312.9
2014-Sep-11 15:33N 54°58' W 005°01'0 0.0
2014-Sep-11 14:33N 54°58' W 005°01'1313.1
2014-Sep-11 13:33N 54°57' W 005°24'1515.2
2014-Sep-11 12:33N 54°51' W 005°48'0 0.0
2014-Sep-11 11:33N 54°51' W 005°48'1514.9
2014-Sep-11 10:33N 54°58' W 005°25'1413.9
2014-Sep-11 09:34N 54°58' W 005°01'0 0.0
2014-Sep-11 08:34N 54°58' W 005°01'1211.9
2014-Sep-11 07:33N 54°57' W 005°22'1616.4
2014-Sep-11 06:33N 54°51' W 005°48'0 0.0
2014-Sep-11 05:33N 54°51' W 005°48'4 3.8
2014-Sep-11 04:33N 54°53' W 005°42'2019.7
2014-Sep-11 03:33N 55°01' W 005°11'7 6.9
2014-Sep-11 02:33N 54°58' W 005°01'0 0.0
2014-Sep-11 01:31N 54°58' W 005°01'6 6.2
2014-Sep-11 00:32N 55°02' W 005°09'1717.4
2014-Sep-10 23:34N 54°54' W 005°36'8 7.6
2014-Sep-10 22:33N 54°51' W 005°48'0 0.0
2014-Sep-10 21:34N 54°51' W 005°48'4 3.9
2014-Sep-10 20:33N 54°53' W 005°42'1817.7
2014-Sep-10 19:34N 55°00' W 005°14'8 7.7
2014-Sep-10 18:30N 54°58' W 005°01'0 0.2
2014-Sep-10 17:33N 54°58' W 005°01'1313.3
2014-Sep-10 16:33N 54°57' W 005°24'1514.8
2014-Sep-10 15:33N 54°51' W 005°48'0 0.0
2014-Sep-10 14:34N 54°51' W 005°48'1515.5
2014-Sep-10 13:34N 54°58' W 005°24'1312.4
2014-Sep-10 12:29N 54°58' W 005°01'0 0.1
2014-Sep-10 11:34N 54°58' W 005°01'1313.1
2014-Sep-10 10:33N 54°57' W 005°24'1515.2
2014-Sep-10 09:33N 54°51' W 005°48'0 0.0
2014-Sep-10 08:33N 54°51' W 005°48'1615.3
2014-Sep-10 07:33N 54°58' W 005°24'1313.1
2014-Sep-10 06:32N 54°58' W 005°01'0 0.0
2014-Sep-10 05:33N 54°58' W 005°01'6 5.6
2014-Sep-10 04:33N 55°01' W 005°09'1818.1
2014-Sep-10 03:33N 54°54' W 005°37'7 7.0
2014-Sep-10 02:33N 54°51' W 005°48'0 0.0
2014-Sep-10 01:33N 54°51' W 005°48'2 2.3
2014-Sep-10 00:33N 54°52' W 005°45'1818.3
2014-Sep-09 23:33N 55°00' W 005°16'9 9.0
2014-Sep-09 22:33N 54°58' W 005°01'0 0.0
2014-Sep-09 21:33N 54°58' W 005°01'6 6.3
2014-Sep-09 20:33N 55°01' W 005°10'1717.2
2014-Sep-09 19:33N 54°54' W 005°37'7 6.9
2014-Sep-09 18:33N 54°51' W 005°48'0 0.0
2014-Sep-09 17:33N 54°51' W 005°48'1414.3
2014-Sep-09 16:33N 54°58' W 005°26'1414.4
2014-Sep-09 15:33N 54°58' W 005°01'0 0.0
2014-Sep-09 14:33N 54°58' W 005°01'1212.2
2014-Sep-09 13:34N 54°58' W 005°22'1616.5
2014-Sep-09 12:33N 54°51' W 005°48'0 0.0
2014-Sep-09 11:32N 54°51' W 005°48'1414.7
2014-Sep-09 10:34N 54°58' W 005°26'1413.7
2014-Sep-09 09:30N 54°58' W 005°01'0 0.0
2014-Sep-09 08:33N 54°58' W 005°01'1111.6
2014-Sep-09 07:34N 54°58' W 005°21'1716.9
2014-Sep-09 06:34N 54°51' W 005°48'0 0.1
2014-Sep-09 05:34N 54°51' W 005°48'6 5.9
2014-Sep-09 04:33N 54°54' W 005°39'1818.3
2014-Sep-09 03:34N 55°02' W 005°10'7 6.6
2014-Sep-09 02:33N 54°58' W 005°01'0 0.0
2014-Sep-09 01:33N 54°58' W 005°01'6 5.6
2014-Sep-09 00:31N 55°01' W 005°09'1818.2
2014-Sep-08 23:33N 54°54' W 005°36'7 7.4
2014-Sep-08 22:33N 54°51' W 005°48'0 0.0
2014-Sep-08 21:33N 54°51' W 005°48'6 6.0
2014-Sep-08 20:33N 54°54' W 005°39'1818.0
2014-Sep-08 19:33N 55°02' W 005°10'7 6.4
2014-Sep-08 18:31N 54°58' W 005°01'0 0.0
2014-Sep-08 17:33N 54°58' W 005°01'1212.1
2014-Sep-08 16:34N 54°57' W 005°22'1616.2
2014-Sep-08 15:33N 54°51' W 005°48'0 0.0
2014-Sep-08 14:33N 54°51' W 005°48'1313.3
2014-Sep-08 13:34N 54°57' W 005°28'1514.7
2014-Sep-08 12:34N 54°59' W 005°02'1 1.1
2014-Sep-08 11:34N 54°58' W 005°01'1212.3
2014-Sep-08 10:33N 54°57' W 005°22'1616.0
2014-Sep-08 09:34N 54°51' W 005°48'0 0.0
2014-Sep-08 08:33N 54°51' W 005°48'1313.4
2014-Sep-08 07:33N 54°57' W 005°27'1514.5
2014-Sep-08 06:33N 54°58' W 005°02'1 1.0
2014-Sep-08 05:33N 54°58' W 005°01'6 6.1
2014-Sep-08 04:34N 55°01' W 005°09'  
Track history (hours):
 
Tides and Currents Weather Stations Pressure Air Temp Water Temp Dewpoint Dewpoint Depression Visibility Wind Speed Wind Dir Waves Ship Positions

European Causeway

Operator: P & O Irish Sea

Last reported at 2014-Sep-18 04:34 UTC. Time now 2014-Sep-18 05:38 UTC.
Position N 54°54' W 005°40'.

Length 165 m; draft 5.5 m.

Type: Ship (hazmat cat A). MMSI: 311027000.

Date/timePositionNaut miles runAvg speedWind from/ knotsBaromVisibWave heightAir tempDewpointWater temp
2014-Sep-18 04:34N 54°54' W 005°40'1817.6
2014-Sep-18 03:32N 55°01' W 005°11'7 7.0
2014-Sep-18 02:33N 54°58' W 005°01'0 0.0
2014-Sep-18 01:33N 54°58' W 005°01'7 6.3
2014-Sep-18 00:31N 55°02' W 005°10'1717.2
2014-Sep-17 23:33N 54°54' W 005°35'8 8.1
2014-Sep-17 22:33N 54°51' W 005°48'0 0.0
2014-Sep-17 21:33N 54°51' W 005°48'2 1.8
2014-Sep-17 20:33N 54°52' W 005°46'1919.0
2014-Sep-17 19:33N 55°01' W 005°17'10 9.3
2014-Sep-17 18:31N 54°58' W 005°01'0 0.0
2014-Sep-17 17:34N 54°58' W 005°01'1212.2
2014-Sep-17 16:33N 54°57' W 005°22'1616.0
2014-Sep-17 15:33N 54°51' W 005°48'0 0.0
2014-Sep-17 14:33N 54°51' W 005°48'1717.0
2014-Sep-17 13:33N 54°59' W 005°22'1211.2
2014-Sep-17 12:29N 54°58' W 005°01'0 0.0
2014-Sep-17 11:34N 54°58' W 005°01'1212.1
2014-Sep-17 10:34N 54°58' W 005°22'1616.2
2014-Sep-17 09:34N 54°51' W 005°48'0 0.1
2014-Sep-17 08:33N 54°51' W 005°48'1312.8
2014-Sep-17 07:33N 54°57' W 005°28'1514.9
2014-Sep-17 06:32N 54°58' W 005°02'1 0.9
2014-Sep-17 05:34N 54°58' W 005°01'6 5.7
2014-Sep-17 04:33N 55°01' W 005°08'1717.1
2014-Sep-17 03:33N 54°54' W 005°35'8 8.0
2014-Sep-17 02:33N 54°51' W 005°48'0 0.0
2014-Sep-17 01:34N 54°51' W 005°48'3 3.1
2014-Sep-17 00:33N 54°53' W 005°44'1817.9
2014-Sep-16 23:33N 55°00' W 005°16'9 8.7
2014-Sep-16 22:33N 54°58' W 005°01'0 0.0
2014-Sep-16 21:33N 54°58' W 005°01'6 5.2
2014-Sep-16 20:27N 55°02' W 005°09'1820.1
2014-Sep-16 19:33N 54°54' W 005°37'7 6.9
2014-Sep-16 18:32N 54°51' W 005°48'0 0.0
2014-Sep-16 17:34N 54°51' W 005°48'1414.0
2014-Sep-16 16:33N 54°58' W 005°26'1514.5
2014-Sep-16 15:33N 54°58' W 005°01'0 0.0
2014-Sep-16 14:33N 54°58' W 005°01'1211.9
2014-Sep-16 13:34N 54°58' W 005°22'1616.5
2014-Sep-16 12:34N 54°51' W 005°48'0 0.0
2014-Sep-16 11:33N 54°51' W 005°48'1413.8
2014-Sep-16 10:34N 54°57' W 005°27'1514.5
2014-Sep-16 09:33N 54°58' W 005°02'0 0.5
2014-Sep-16 08:32N 54°58' W 005°01'1312.8
2014-Sep-16 07:33N 54°57' W 005°23'1615.7
2014-Sep-16 06:33N 54°51' W 005°48'0 0.0
2014-Sep-16 05:33N 54°51' W 005°48'3 3.2
2014-Sep-16 04:33N 54°53' W 005°43'2020.2
2014-Sep-16 03:33N 55°01' W 005°11'7 7.0
2014-Sep-16 02:33N 54°58' W 005°01'0 0.0
2014-Sep-16 01:33N 54°58' W 005°01'5 5.5
2014-Sep-16 00:33N 55°02' W 005°08'1717.4
2014-Sep-15 23:34N 54°54' W 005°35'8 7.9
2014-Sep-15 22:33N 54°51' W 005°48'0 0.0
2014-Sep-15 21:21N 54°51' W 005°48'4 5.0
2014-Sep-15 20:34N 54°53' W 005°42'1817.7
2014-Sep-15 19:33N 55°01' W 005°14'8 7.8
2014-Sep-15 18:30N 54°58' W 005°01'0 0.0
2014-Sep-15 17:33N 54°58' W 005°01'1313.0
2014-Sep-15 16:33N 54°57' W 005°24'1515.3
2014-Sep-15 15:33N 54°51' W 005°48'0 0.0
2014-Sep-15 14:33N 54°51' W 005°48'1414.2
2014-Sep-15 13:33N 54°58' W 005°26'1414.4
2014-Sep-15 12:33N 54°58' W 005°01'0 0.1
2014-Sep-15 11:33N 54°58' W 005°01'1211.7
2014-Sep-15 10:33N 54°58' W 005°21'1716.6
2014-Sep-15 09:33N 54°51' W 005°48'0 0.1
2014-Sep-15 08:33N 54°51' W 005°48'1211.6
2014-Sep-15 07:33N 54°57' W 005°30'1615.5
2014-Sep-15 06:31N 54°59' W 005°03'2 1.7
2014-Sep-15 05:33N 54°58' W 005°01'6 5.6
2014-Sep-15 04:33N 55°02' W 005°08'1817.3
2014-Sep-15 03:31N 54°54' W 005°37'7 7.4
2014-Sep-15 02:33N 54°51' W 005°48'0 0.0
2014-Sep-15 01:33N 54°51' W 005°48'0 0.0
2014-Sep-15 00:33N 54°51' W 005°48'4 3.7
2014-Sep-14 23:33N 54°53' W 005°43'1818.1
2014-Sep-14 22:33N 55°01' W 005°14'8 7.9
2014-Sep-14 21:33N 54°58' W 005°01'6 6.1
2014-Sep-14 20:31N 55°01' W 005°10'1717.4
2014-Sep-14 19:33N 54°54' W 005°36'7 7.4
2014-Sep-14 18:33N 54°51' W 005°48'0 0.0
2014-Sep-14 17:33N 54°51' W 005°48'1313.2
2014-Sep-14 16:33N 54°57' W 005°28'1514.8
2014-Sep-14 15:33N 54°58' W 005°02'1 0.9
2014-Sep-14 14:33N 54°58' W 005°01'6 6.4
2014-Sep-14 13:34N 55°01' W 005°10'1717.2
2014-Sep-14 12:33N 54°54' W 005°38'7 6.6
2014-Sep-14 11:34N 54°51' W 005°48'0 0.0
2014-Sep-14 10:34N 54°51' W 005°48'0 0.0
2014-Sep-14 09:33N 54°51' W 005°48'0 0.0
2014-Sep-14 08:34N 54°51' W 005°48'1212.0
2014-Sep-14 07:34N 54°57' W 005°30'1615.5
2014-Sep-14 06:33N 54°59' W 005°03'2 1.6
2014-Sep-14 05:33N 54°58' W 005°01'0 0.0
2014-Sep-14 04:33N 54°58' W 005°01'0 0.0
2014-Sep-14 03:33N 54°58' W 005°01'0 0.0
2014-Sep-14 02:33N 54°58' W 005°01'0 0.0
2014-Sep-14 01:33N 54°58' W 005°01'0 0.0
2014-Sep-13 21:33N 54°58' W 005°01'5 4.7
2014-Sep-13 20:29N 55°02' W 005°07'1717.8
2014-Sep-13 19:34N 54°55' W 005°33'9 9.4
2014-Sep-13 18:33N 54°51' W 005°48'0 0.0
2014-Sep-13 17:33N 54°51' W 005°48'1313.4
2014-Sep-13 16:33N 54°57' W 005°27'1514.8
2014-Sep-13 15:33N 54°58' W 005°02'1 0.7
2014-Sep-13 14:34N 54°58' W 005°01'1010.0
2014-Sep-13 13:33N 54°58' W 005°18'1817.9
2014-Sep-13 12:33N 54°52' W 005°47'1 1.2
2014-Sep-13 11:33N 54°51' W 005°48'1413.9
2014-Sep-13 10:34N 54°57' W 005°27'1514.5
2014-Sep-13 09:34N 54°58' W 005°02'0 0.4
2014-Sep-13 08:34N 54°58' W 005°01'1111.2
2014-Sep-13 07:34N 54°57' W 005°21'1716.9
2014-Sep-13 06:34N 54°51' W 005°48'0 0.1
2014-Sep-13 05:34N 54°51' W 005°48'3 3.4
2014-Sep-13 04:34N 54°53' W 005°43'2020.1
2014-Sep-13 03:33N 55°01' W 005°12'7 7.1
2014-Sep-13 02:33N 54°58' W 005°01'0 0.0
2014-Sep-13 01:33N 54°58' W 005°01'5 4.7
2014-Sep-13 00:32N 55°02' W 005°06'1617.0
2014-Sep-12 23:33N 54°55' W 005°32'10 9.9
2014-Sep-12 22:33N 54°51' W 005°48'0 0.0
2014-Sep-12 21:33N 54°51' W 005°48'5 5.1
2014-Sep-12 20:33N 54°54' W 005°40'1817.8
2014-Sep-12 19:34N 55°01' W 005°12'7 7.1
2014-Sep-12 18:31N 54°58' W 005°01'0 0.1
2014-Sep-12 17:33N 54°58' W 005°01'1312.7
2014-Sep-12 16:34N 54°57' W 005°23'1615.5
2014-Sep-12 15:33N 54°51' W 005°48'0 0.0
2014-Sep-12 14:33N 54°51' W 005°48'1716.7
2014-Sep-12 13:33N 54°59' W 005°22'1212.1
2014-Sep-12 12:33N 54°58' W 005°01'0 0.0
2014-Sep-12 11:33N 54°58' W 005°01'1211.8
2014-Sep-12 10:33N 54°58' W 005°21'1716.6
2014-Sep-12 09:33N 54°51' W 005°48'0 0.1
2014-Sep-12 08:33N 54°51' W 005°48'1515.5
2014-Sep-12 07:33N 54°58' W 005°24'1312.7
2014-Sep-12 06:31N 54°58' W 005°01'0 0.0
2014-Sep-12 05:33N 54°58' W 005°01'6 5.7
2014-Sep-12 04:34N 55°01' W 005°08'1817.7
2014-Sep-12 03:34N 54°54' W 005°37'7 7.2
2014-Sep-12 02:33N 54°51' W 005°48'0 0.0
2014-Sep-12 01:33N 54°51' W 005°48'3 2.6
2014-Sep-12 00:34N 54°53' W 005°44'1818.3
2014-Sep-11 23:34N 55°00' W 005°16'9 8.4
2014-Sep-11 22:31N 54°58' W 005°01'0 0.0
2014-Sep-11 21:28N 54°58' W 005°01'6 6.0
2014-Sep-11 20:30N 55°01' W 005°08'1919.9
2014-Sep-11 19:33N 54°54' W 005°39'6 6.0
2014-Sep-11 18:33N 54°51' W 005°48'0 0.0
2014-Sep-11 17:33N 54°51' W 005°48'1616.0
2014-Sep-11 16:33N 54°59' W 005°23'1312.9
2014-Sep-11 15:33N 54°58' W 005°01'0 0.0
2014-Sep-11 14:33N 54°58' W 005°01'1313.1
2014-Sep-11 13:33N 54°57' W 005°24'1515.2
2014-Sep-11 12:33N 54°51' W 005°48'0 0.0
2014-Sep-11 11:33N 54°51' W 005°48'1514.9
2014-Sep-11 10:33N 54°58' W 005°25'1413.9
2014-Sep-11 09:34N 54°58' W 005°01'0 0.0
2014-Sep-11 08:34N 54°58' W 005°01'1211.9
2014-Sep-11 07:33N 54°57' W 005°22'1616.4
2014-Sep-11 06:33N 54°51' W 005°48'0 0.0
2014-Sep-11 05:33N 54°51' W 005°48'4 3.8
2014-Sep-11 04:33N 54°53' W 005°42'2019.7
2014-Sep-11 03:33N 55°01' W 005°11'7 6.9
2014-Sep-11 02:33N 54°58' W 005°01'0 0.0
2014-Sep-11 01:31N 54°58' W 005°01'6 6.2
2014-Sep-11 00:32N 55°02' W 005°09'1717.4
2014-Sep-10 23:34N 54°54' W 005°36'8 7.6
2014-Sep-10 22:33N 54°51' W 005°48'0 0.0
2014-Sep-10 21:34N 54°51' W 005°48'4 3.9
2014-Sep-10 20:33N 54°53' W 005°42'1817.7
2014-Sep-10 19:34N 55°00' W 005°14'8 7.7
2014-Sep-10 18:30N 54°58' W 005°01'0 0.2
2014-Sep-10 17:33N 54°58' W 005°01'1313.3
2014-Sep-10 16:33N 54°57' W 005°24'1514.8
2014-Sep-10 15:33N 54°51' W 005°48'0 0.0
2014-Sep-10 14:34N 54°51' W 005°48'1515.5
2014-Sep-10 13:34N 54°58' W 005°24'1312.4
2014-Sep-10 12:29N 54°58' W 005°01'0 0.1
2014-Sep-10 11:34N 54°58' W 005°01'1313.1
2014-Sep-10 10:33N 54°57' W 005°24'1515.2
2014-Sep-10 09:33N 54°51' W 005°48'0 0.0
2014-Sep-10 08:33N 54°51' W 005°48'1615.3
2014-Sep-10 07:33N 54°58' W 005°24'1313.1
2014-Sep-10 06:32N 54°58' W 005°01'0 0.0
2014-Sep-10 05:33N 54°58' W 005°01'6 5.6
2014-Sep-10 04:33N 55°01' W 005°09'1818.1
2014-Sep-10 03:33N 54°54' W 005°37'7 7.0
2014-Sep-10 02:33N 54°51' W 005°48'0 0.0
2014-Sep-10 01:33N 54°51' W 005°48'2 2.3
2014-Sep-10 00:33N 54°52' W 005°45'1818.3
2014-Sep-09 23:33N 55°00' W 005°16'9 9.0
2014-Sep-09 22:33N 54°58' W 005°01'0 0.0
2014-Sep-09 21:33N 54°58' W 005°01'6 6.3
2014-Sep-09 20:33N 55°01' W 005°10'1717.2
2014-Sep-09 19:33N 54°54' W 005°37'7 6.9
2014-Sep-09 18:33N 54°51' W 005°48'0 0.0
2014-Sep-09 17:33N 54°51' W 005°48'1414.3
2014-Sep-09 16:33N 54°58' W 005°26'1414.4
2014-Sep-09 15:33N 54°58' W 005°01'0 0.0
2014-Sep-09 14:33N 54°58' W 005°01'1212.2
2014-Sep-09 13:34N 54°58' W 005°22'1616.5
2014-Sep-09 12:33N 54°51' W 005°48'0 0.0
2014-Sep-09 11:32N 54°51' W 005°48'1414.7
2014-Sep-09 10:34N 54°58' W 005°26'1413.7
2014-Sep-09 09:30N 54°58' W 005°01'0 0.0
2014-Sep-09 08:33N 54°58' W 005°01'1111.6
2014-Sep-09 07:34N 54°58' W 005°21'1716.9
2014-Sep-09 06:34N 54°51' W 005°48'0 0.1
2014-Sep-09 05:34N 54°51' W 005°48'6 5.9
2014-Sep-09 04:33N 54°54' W 005°39'1818.3
2014-Sep-09 03:34N 55°02' W 005°10'7 6.6
2014-Sep-09 02:33N 54°58' W 005°01'0 0.0
2014-Sep-09 01:33N 54°58' W 005°01'6 5.6
2014-Sep-09 00:31N 55°01' W 005°09'1818.2
2014-Sep-08 23:33N 54°54' W 005°36'7 7.4
2014-Sep-08 22:33N 54°51' W 005°48'0 0.0
2014-Sep-08 21:33N 54°51' W 005°48'6 6.0
2014-Sep-08 20:33N 54°54' W 005°39'1818.0
2014-Sep-08 19:33N 55°02' W 005°10'7 6.4
2014-Sep-08 18:31N 54°58' W 005°01'0 0.0
2014-Sep-08 17:33N 54°58' W 005°01'1212.1
2014-Sep-08 16:34N 54°57' W 005°22'1616.2
2014-Sep-08 15:33N 54°51' W 005°48'0 0.0
2014-Sep-08 14:33N 54°51' W 005°48'1313.3
2014-Sep-08 13:34N 54°57' W 005°28'1514.7
2014-Sep-08 12:34N 54°59' W 005°02'1 1.1
2014-Sep-08 11:34N 54°58' W 005°01'1212.3
2014-Sep-08 10:33N 54°57' W 005°22'1616.0
2014-Sep-08 09:34N 54°51' W 005°48'0 0.0
2014-Sep-08 08:33N 54°51' W 005°48'1313.4
2014-Sep-08 07:33N 54°57' W 005°27'1514.5
2014-Sep-08 06:33N 54°58' W 005°02'1 1.0
2014-Sep-08 05:33N 54°58' W 005°01'6 6.1
2014-Sep-08 04:34N 55°01' W 005°09'  

Dump ship's entire track history